Time;durP1;ratioP1;P1;durP2;ratioP2;P2;SDS_P1;SDS_P2;PMS_P1;PMS_P2;Temp;Humidity;BMP_temperature;BMP_pressure;BME280_temperature;BME280_humidity;BME280_pressure;Samples;Min_cycle;Max_cycle;Signal;HPM_P1;HPM_P2
2024/02/01 00:00:36;;;;;;;4.33;2.73;;;8.00;99.90;;;;;;5014942;28;20465;-70
2024/02/01 00:03:03;;;;;;;2.70;2.33;;;7.90;99.90;;;;;;5010818;28;21170;-70
2024/02/01 00:05:30;;;;;;;8.20;3.87;;;7.90;99.90;;;;;;5018300;28;20458;-70
2024/02/01 00:07:58;;;;;;;7.40;4.00;;;7.90;99.90;;;;;;5019620;28;20438;-71
2024/02/01 00:10:26;;;;;;;4.73;3.20;;;8.00;99.90;;;;;;5016257;28;20450;-70
2024/02/01 00:12:53;;;;;;;2.23;1.70;;;8.10;99.90;;;;;;5016521;28;20463;-71
2024/02/01 00:15:22;;;;;;;3.50;2.83;;;8.10;99.90;;;;;;5016679;28;20451;-71
2024/02/01 00:17:49;;;;;;;3.90;3.30;;;8.10;99.90;;;;;;5012270;28;20460;-71
2024/02/01 00:20:16;;;;;;;5.53;2.87;;;8.00;99.90;;;;;;5017159;28;20551;-72
2024/02/01 00:22:42;;;;;;;3.77;2.33;;;8.00;99.90;;;;;;5019595;28;20907;-71
2024/02/01 00:25:09;;;;;;;6.33;3.50;;;8.00;99.90;;;;;;5020008;28;20495;-71
2024/02/01 00:27:37;;;;;;;3.53;3.23;;;8.10;99.90;;;;;;5017692;28;20465;-70
2024/02/01 00:30:05;;;;;;;2.97;2.30;;;8.10;99.90;;;;;;5006178;28;20471;-71
2024/02/01 00:32:32;;;;;;;7.00;4.10;;;8.10;99.90;;;;;;5016438;28;20448;-71
2024/02/01 00:34:59;;;;;;;7.40;3.80;;;8.00;99.90;;;;;;5015928;28;21040;-71
2024/02/01 00:37:27;;;;;;;2.87;2.40;;;8.00;99.90;;;;;;5013201;28;20522;-71
2024/02/01 00:39:54;;;;;;;4.67;4.17;;;8.00;99.90;;;;;;5013913;28;20483;-68
2024/02/01 00:42:24;;;;;;;3.57;3.27;;;8.00;99.90;;;;;;5021971;28;20480;-70
2024/02/01 00:44:52;;;;;;;2.67;2.30;;;8.00;99.90;;;;;;5014886;28;20460;-69
2024/02/01 00:47:19;;;;;;;9.80;4.00;;;8.00;99.90;;;;;;5018346;28;20527;-70
2024/02/01 00:49:45;;;;;;;12.20;4.23;;;7.90;99.90;;;;;;5017463;28;20469;-69
2024/02/01 00:52:12;;;;;;;6.73;3.70;;;8.00;99.90;;;;;;5015114;28;20460;-70
2024/02/01 00:54:39;;;;;;;10.17;4.37;;;8.00;99.90;;;;;;5015498;28;20460;-70
2024/02/01 00:57:06;;;;;;;3.97;2.87;;;7.90;99.90;;;;;;5015401;28;20619;-70
2024/02/01 00:59:33;;;;;;;6.70;4.37;;;7.90;99.90;;;;;;5012491;28;20471;-71
2024/02/01 01:02:01;;;;;;;5.13;4.63;;;7.90;99.90;;;;;;5011124;28;20472;-71
2024/02/01 01:04:28;;;;;;;6.20;3.80;;;7.80;99.90;;;;;;5010223;28;20963;-71
2024/02/01 01:06:55;;;;;;;7.53;2.43;;;7.90;99.90;;;;;;5014394;28;20450;-71
2024/02/01 01:09:24;;;;;;;4.70;3.77;;;7.80;99.90;;;;;;4993975;28;20579;-71
2024/02/01 01:11:50;;;;;;;7.40;2.23;;;7.80;99.90;;;;;;5014611;28;20444;-71
2024/02/01 01:14:17;;;;;;;6.53;4.73;;;7.80;99.90;;;;;;5010811;28;20465;-71
2024/02/01 01:16:44;;;;;;;6.73;3.50;;;7.80;99.90;;;;;;5012939;28;20495;-71
2024/02/01 01:19:12;;;;;;;9.70;4.53;;;7.90;99.90;;;;;;5015472;28;20839;-71
2024/02/01 01:21:39;;;;;;;9.27;4.17;;;7.90;99.90;;;;;;5014067;28;20434;-71
2024/02/01 01:24:06;;;;;;;5.67;3.93;;;7.90;99.90;;;;;;5022115;28;20540;-71
2024/02/01 01:26:32;;;;;;;6.00;3.70;;;7.90;99.90;;;;;;5014099;28;20457;-70
2024/02/01 01:28:59;;;;;;;10.30;5.10;;;7.90;99.90;;;;;;5017691;28;20457;-70
2024/02/01 01:31:26;;;;;;;9.13;4.90;;;7.90;99.90;;;;;;5011607;28;20893;-70
2024/02/01 01:33:53;;;;;;;8.37;4.20;;;7.90;99.90;;;;;;5013258;28;20486;-70
2024/02/01 01:36:22;;;;;;;6.37;4.03;;;7.90;99.90;;;;;;5015241;28;20529;-70
2024/02/01 01:38:51;;;;;;;7.23;4.90;;;8.00;99.90;;;;;;5017943;28;20465;-70
2024/02/01 01:41:18;;;;;;;4.93;3.63;;;8.00;99.90;;;;;;5012980;28;21008;-70
2024/02/01 01:43:45;;;;;;;11.13;5.97;;;8.00;99.90;;;;;;5010030;28;20468;-70
2024/02/01 01:46:13;;;;;;;7.30;4.40;;;8.10;99.90;;;;;;5009229;28;20887;-70
2024/02/01 01:48:40;;;;;;;3.53;2.10;;;8.10;99.90;;;;;;5011574;28;20484;-70
2024/02/01 01:51:08;;;;;;;3.80;3.40;;;8.00;99.90;;;;;;5000414;28;21008;-71
2024/02/01 01:53:38;;;;;;;8.53;5.63;;;8.00;99.90;;;;;;5010671;28;20475;-71
2024/02/01 01:56:06;;;;;;;6.70;4.97;;;8.00;99.90;;;;;;5011452;28;20480;-71
2024/02/01 02:01:03;;;;;;;8.33;4.57;;;8.10;99.90;;;;;;5030047;28;20561;-70
2024/02/01 02:03:33;;;;;;;3.80;2.90;;;8.10;99.90;;;;;;5030175;28;20434;-70
2024/02/01 02:06:00;;;;;;;7.73;6.93;;;8.10;99.90;;;;;;5034498;28;20796;-70
2024/02/01 02:08:27;;;;;;;4.93;3.77;;;8.00;99.90;;;;;;5032441;28;20875;-70
2024/02/01 02:10:55;;;;;;;11.03;6.03;;;8.00;99.90;;;;;;5030149;28;20987;-70
2024/02/01 02:13:22;;;;;;;11.73;5.00;;;8.10;99.90;;;;;;5031975;28;20682;-71
2024/02/01 02:15:49;;;;;;;5.90;3.67;;;8.10;99.90;;;;;;5031159;28;20537;-70
2024/02/01 02:18:15;;;;;;;8.20;4.60;;;8.10;99.90;;;;;;5032470;28;20484;-70
2024/02/01 02:20:47;;;;;;;12.37;5.80;;;8.10;99.90;;;;;;5030693;28;20464;-70
2024/02/01 02:23:15;;;;;;;7.00;5.23;;;8.10;99.90;;;;;;5031763;28;20475;-70
2024/02/01 02:25:42;;;;;;;6.57;3.50;;;8.20;99.90;;;;;;5022980;28;21122;-70
2024/02/01 02:28:09;;;;;;;6.40;4.10;;;8.10;99.90;;;;;;5027861;28;20452;-70
2024/02/01 02:30:37;;;;;;;12.23;5.87;;;8.20;99.90;;;;;;5017471;28;20456;-69
2024/02/01 02:33:07;;;;;;;3.50;3.20;;;8.20;99.90;;;;;;5031423;28;20430;-70
2024/02/01 02:35:34;;;;;;;11.23;5.53;;;8.20;99.90;;;;;;5029756;28;20490;-71
2024/02/01 02:38:01;;;;;;;14.03;6.33;;;8.20;99.90;;;;;;5027732;28;21328;-70
2024/02/01 02:40:29;;;;;;;8.33;5.37;;;8.30;99.90;;;;;;5029832;28;20466;-70
2024/02/01 02:42:55;;;;;;;9.10;4.50;;;8.30;99.90;;;;;;5028814;28;20435;-70
2024/02/01 02:45:22;;;;;;;8.53;3.43;;;8.30;99.90;;;;;;5031673;28;20803;-70
2024/02/01 02:47:49;;;;;;;8.37;5.57;;;8.30;99.90;;;;;;5029502;28;20477;-70
2024/02/01 02:50:18;;;;;;;3.90;2.77;;;8.30;99.90;;;;;;5033363;28;20445;-70
2024/02/01 02:52:47;;;;;;;7.30;5.07;;;8.30;99.90;;;;;;5030336;28;20467;-70
2024/02/01 02:55:14;;;;;;;11.50;4.70;;;8.30;99.90;;;;;;5030159;28;20451;-70
2024/02/01 02:57:42;;;;;;;6.17;3.83;;;8.40;99.90;;;;;;5026714;28;20427;-71
2024/02/01 03:00:18;;;;;;;7.73;4.87;;;8.30;99.90;;;;;;5027730;28;20471;-70
2024/02/01 03:02:45;;;;;;;12.63;6.10;;;8.40;99.90;;;;;;5023596;28;20471;-70
2024/02/01 03:05:12;;;;;;;7.80;5.90;;;8.30;99.90;;;;;;5032243;28;20451;-70
2024/02/01 03:07:38;;;;;;;7.40;5.40;;;8.30;99.90;;;;;;5028554;28;20503;-70
2024/02/01 03:10:06;;;;;;;11.97;6.63;;;8.30;99.90;;;;;;5030434;28;20456;-70
2024/02/01 03:12:33;;;;;;;4.80;4.30;;;8.40;99.90;;;;;;5029219;28;20459;-70
2024/02/01 03:15:01;;;;;;;6.83;3.70;;;8.40;99.90;;;;;;5027330;28;20935;-70
2024/02/01 03:17:28;;;;;;;7.07;2.40;;;8.40;99.90;;;;;;5030964;28;20463;-70
2024/02/01 03:19:55;;;;;;;4.30;3.90;;;8.40;99.90;;;;;;5028701;28;20496;-70
2024/02/01 03:22:24;;;;;;;7.13;5.00;;;8.30;99.90;;;;;;5030950;28;20490;-70
2024/02/01 03:24:58;;;;;;;6.13;4.50;;;8.30;99.90;;;;;;5039479;28;20526;-70
2024/02/01 03:27:28;;;;;;;6.10;4.97;;;8.40;99.90;;;;;;5032323;28;22153;-70
2024/02/01 03:29:58;;;;;;;9.83;5.73;;;8.40;99.90;;;;;;5032596;28;20951;-70
2024/02/01 03:32:29;;;;;;;6.60;4.83;;;8.30;99.90;;;;;;5038062;28;20461;-70
2024/02/01 03:34:56;;;;;;;6.33;4.10;;;8.30;99.90;;;;;;5035521;28;20463;-71
2024/02/01 03:37:27;;;;;;;9.23;5.50;;;8.40;99.90;;;;;;5038078;28;20434;-71
2024/02/01 03:39:56;;;;;;;6.33;4.03;;;8.50;99.90;;;;;;5030090;28;20464;-70
2024/02/01 03:42:23;;;;;;;11.17;7.13;;;8.50;99.90;;;;;;5032316;28;20504;-70
2024/02/01 03:44:50;;;;;;;8.83;6.00;;;8.60;99.90;;;;;;5034194;28;20544;-70
2024/02/01 03:47:17;;;;;;;7.40;4.63;;;8.60;99.90;;;;;;5031149;28;20520;-70
2024/02/01 03:49:45;;;;;;;14.37;8.83;;;8.60;99.90;;;;;;5037656;28;20478;-70
2024/02/01 03:52:20;;;;;;;10.63;6.83;;;8.60;99.90;;;;;;5031880;28;20462;-70
2024/02/01 03:54:47;;;;;;;11.10;4.90;;;8.50;99.90;;;;;;5030180;28;20786;-70
2024/02/01 03:57:15;;;;;;;8.00;4.47;;;8.50;99.90;;;;;;5035286;28;21207;-70
2024/02/01 03:59:43;;;;;;;14.00;9.87;;;8.60;99.90;;;;;;5033130;28;20454;-70
2024/02/01 04:02:14;;;;;;;9.77;6.43;;;8.60;99.90;;;;;;5033952;28;20471;-70
2024/02/01 04:04:45;;;;;;;11.27;7.93;;;8.50;99.90;;;;;;5026202;28;20965;-69
2024/02/01 04:07:16;;;;;;;9.70;5.40;;;8.50;99.90;;;;;;5036832;28;20438;-70
2024/02/01 04:09:43;;;;;;;11.67;8.80;;;8.60;99.90;;;;;;5029412;28;20546;-70
2024/02/01 04:12:10;;;;;;;11.80;8.77;;;8.60;99.90;;;;;;5029251;28;20430;-70
2024/02/01 04:14:37;;;;;;;11.70;6.37;;;8.60;99.90;;;;;;5031027;28;20556;-70
2024/02/01 04:17:04;;;;;;;9.30;6.53;;;8.70;99.90;;;;;;5029875;28;20463;-70
2024/02/01 04:19:31;;;;;;;7.90;5.47;;;8.70;99.90;;;;;;5030830;28;20956;-69
2024/02/01 04:21:57;;;;;;;12.00;6.07;;;8.70;99.90;;;;;;5035762;28;20474;-70
2024/02/01 04:24:26;;;;;;;12.70;7.17;;;8.70;99.90;;;;;;5026948;28;20431;-70
2024/02/01 04:26:52;;;;;;;10.10;5.80;;;8.70;99.90;;;;;;5034418;28;20466;-70
2024/02/01 04:29:19;;;;;;;11.67;7.87;;;8.80;99.90;;;;;;5032901;28;20446;-70
2024/02/01 04:31:46;;;;;;;10.70;6.23;;;8.80;99.90;;;;;;5025523;28;20532;-70
2024/02/01 04:34:12;;;;;;;10.30;8.20;;;8.80;99.90;;;;;;5027356;28;20456;-70
2024/02/01 04:36:39;;;;;;;15.43;8.73;;;8.90;99.90;;;;;;5031751;28;20461;-70
2024/02/01 04:39:08;;;;;;;14.93;7.47;;;8.90;99.90;;;;;;5034668;28;20451;-70
2024/02/01 04:41:40;;;;;;;18.70;8.07;;;9.00;99.90;;;;;;5028608;28;20959;-70
2024/02/01 04:44:10;;;;;;;14.87;9.17;;;9.00;99.90;;;;;;5030900;28;20560;-70
2024/02/01 04:46:36;;;;;;;12.63;7.47;;;9.10;99.90;;;;;;5028766;28;20438;-69
2024/02/01 04:49:11;;;;;;;17.40;9.03;;;9.00;99.90;;;;;;5038046;28;20754;-70
2024/02/01 04:51:39;;;;;;;14.33;8.60;;;9.00;99.90;;;;;;5030232;28;20437;-70
2024/02/01 04:54:06;;;;;;;16.57;9.60;;;9.00;99.90;;;;;;5027053;28;20467;-70
2024/02/01 04:56:33;;;;;;;14.70;10.80;;;9.00;99.90;;;;;;5030407;28;20523;-70
2024/02/01 04:59:01;;;;;;;15.60;11.03;;;9.10;99.90;;;;;;5032444;28;20534;-70
2024/02/01 05:01:30;;;;;;;19.00;10.17;;;9.10;99.90;;;;;;5029049;28;20461;-70
2024/02/01 05:03:57;;;;;;;14.57;8.70;;;9.10;99.90;;;;;;5032489;28;20783;-70
2024/02/01 05:06:25;;;;;;;29.20;11.50;;;9.20;99.90;;;;;;5034448;28;20490;-69
2024/02/01 05:08:52;;;;;;;10.93;7.77;;;9.20;99.90;;;;;;5035825;28;20497;-69
2024/02/01 05:11:19;;;;;;;14.70;9.93;;;9.10;99.90;;;;;;5031683;28;20468;-70
2024/02/01 05:13:46;;;;;;;29.20;10.13;;;9.10;99.90;;;;;;5041575;28;20464;-70
2024/02/01 05:16:14;;;;;;;17.70;10.20;;;9.10;99.90;;;;;;5032713;28;22676;-70
2024/02/01 05:18:41;;;;;;;10.37;7.03;;;9.10;99.90;;;;;;5035184;28;20435;-70
2024/02/01 05:21:08;;;;;;;12.57;8.50;;;9.10;99.90;;;;;;5031592;28;20494;-71
2024/02/01 05:23:35;;;;;;;9.67;7.00;;;9.00;99.90;;;;;;5037392;28;20448;-70
2024/02/01 05:26:02;;;;;;;13.80;9.07;;;9.10;99.90;;;;;;5030978;28;20487;-70
2024/02/01 05:28:29;;;;;;;15.23;8.07;;;9.10;99.90;;;;;;5034164;28;20913;-70
2024/02/01 05:30:57;;;;;;;8.07;5.40;;;9.00;99.90;;;;;;5025957;28;20904;-70
2024/02/01 05:33:25;;;;;;;10.03;7.70;;;9.00;99.90;;;;;;5022203;28;20471;-70
2024/02/01 05:35:52;;;;;;;8.60;6.17;;;9.10;99.90;;;;;;5024227;28;20458;-70
2024/02/01 05:38:19;;;;;;;9.70;5.87;;;9.10;99.90;;;;;;5030733;28;20459;-70
2024/02/01 05:40:48;;;;;;;9.93;6.50;;;9.00;99.90;;;;;;5036525;28;20470;-71
2024/02/01 05:43:14;;;;;;;10.30;6.23;;;9.10;99.90;;;;;;5028301;28;20512;-72
2024/02/01 05:45:41;;;;;;;10.33;6.53;;;9.10;99.90;;;;;;5027543;28;20478;-71
2024/02/01 05:48:11;;;;;;;4.97;3.87;;;9.00;99.90;;;;;;5023633;28;21576;-71
2024/02/01 05:50:40;;;;;;;9.23;6.30;;;8.90;99.90;;;;;;5021014;28;20456;-70
2024/02/01 05:53:09;;;;;;;7.57;5.40;;;8.90;99.90;;;;;;5037856;28;20835;-70
2024/02/01 05:55:36;;;;;;;7.43;4.60;;;8.90;99.90;;;;;;5031963;28;24425;-71
2024/02/01 05:58:05;;;;;;;10.00;6.30;;;8.90;99.90;;;;;;5037994;28;20459;-71
2024/02/01 06:00:32;;;;;;;7.83;5.87;;;8.90;99.90;;;;;;5025214;28;20501;-71
2024/02/01 06:02:59;;;;;;;11.80;3.87;;;8.90;99.90;;;;;;5026217;28;20487;-70
2024/02/01 06:05:27;;;;;;;7.87;4.90;;;8.90;99.90;;;;;;5031744;28;20863;-73
2024/02/01 06:07:55;;;;;;;7.27;5.53;;;8.80;99.90;;;;;;5033755;28;20825;-70
2024/02/01 06:10:22;;;;;;;8.03;5.67;;;8.70;99.90;;;;;;5034183;28;20459;-70
2024/02/01 06:12:49;;;;;;;11.33;5.30;;;8.70;99.90;;;;;;5028686;28;21560;-69
2024/02/01 06:15:15;;;;;;;6.57;3.67;;;8.60;99.90;;;;;;5034195;28;20830;-70
2024/02/01 06:17:42;;;;;;;11.13;4.47;;;8.60;99.90;;;;;;5030213;28;20504;-70
2024/02/01 06:20:11;;;;;;;7.07;4.70;;;8.50;99.90;;;;;;5032276;28;20467;-70
2024/02/01 06:22:38;;;;;;;13.20;3.73;;;8.50;99.90;;;;;;5034153;28;20485;-70
2024/02/01 06:25:11;;;;;;;5.53;3.27;;;8.40;99.90;;;;;;5032177;28;20464;-71
2024/02/01 06:27:38;;;;;;;6.63;4.07;;;8.30;99.90;;;;;;5034818;28;20441;-71
2024/02/01 06:30:10;;;;;;;4.57;3.17;;;8.30;99.90;;;;;;5032938;28;20600;-71
2024/02/01 06:32:36;;;;;;;3.73;2.67;;;8.30;99.90;;;;;;5027209;28;20459;-71
2024/02/01 06:35:06;;;;;;;4.00;2.70;;;8.30;99.90;;;;;;5030203;28;20815;-71
2024/02/01 06:37:35;;;;;;;3.30;1.73;;;8.10;99.90;;;;;;5032288;28;20461;-72
2024/02/01 06:40:26;;;;;;;4.30;2.13;;;7.90;99.90;;;;;;5029754;28;20927;-70
2024/02/01 06:43:08;;;;;;;1.23;0.97;;;7.90;99.90;;;;;;5027448;28;20438;-71
2024/02/01 06:45:45;;;;;;;2.10;1.90;;;7.70;99.90;;;;;;5035609;28;20450;-70
2024/02/01 06:48:12;;;;;;;8.10;2.17;;;7.60;99.90;;;;;;5037790;28;20543;-70
2024/02/01 06:50:54;;;;;;;17.70;2.60;;;7.60;99.90;;;;;;5036138;28;20463;-71
2024/02/01 06:53:33;;;;;;;4.37;1.80;;;7.50;99.90;;;;;;5032199;28;20831;-71
2024/02/01 06:56:06;;;;;;;2.30;1.60;;;7.40;99.90;;;;;;5039927;28;20457;-71
2024/02/01 06:58:47;;;;;;;9.60;2.07;;;7.30;99.90;;;;;;5039859;28;20433;-71
2024/02/01 07:01:24;;;;;;;7.50;1.57;;;7.20;99.90;;;;;;5037488;28;20425;-71
2024/02/01 07:03:56;;;;;;;2.17;1.20;;;7.10;99.90;;;;;;5033793;28;20444;-70
2024/02/01 07:06:35;;;;;;;3.83;1.83;;;7.10;99.90;;;;;;5043481;28;20844;-71
2024/02/01 07:09:27;;;;;;;8.73;2.33;;;7.00;99.90;;;;;;5040995;28;20547;-71
2024/02/01 07:12:14;;;;;;;2.13;1.80;;;6.90;99.90;;;;;;5036580;28;21011;-71
2024/02/01 07:17:27;;;;;;;2.77;2.53;;;6.90;99.90;;;;;;5041512;22;20453;-71
2024/02/01 07:19:53;;;;;;;2.00;1.47;;;6.80;99.90;;;;;;5044165;28;20438;-70
2024/02/01 07:22:35;;;;;;;3.03;1.27;;;6.70;99.90;;;;;;5038081;28;20540;-70
2024/02/01 07:25:09;;;;;;;16.27;4.43;;;6.70;99.90;;;;;;5041187;28;20797;-71
2024/02/01 07:57:55;;;;;;;9.30;2.67;;;7.10;99.90;;;;;;5029058;28;20828;-71
2024/02/01 08:08:55;;;;;;;7.90;2.50;;;7.50;99.90;;;;;;4983099;28;20954;-70
2024/02/01 08:11:22;;;;;;;7.07;2.77;;;7.30;99.90;;;;;;4981165;28;20468;-71
2024/02/01 08:13:49;;;;;;;6.40;1.57;;;7.40;99.90;;;;;;4978089;28;20436;-70
2024/02/01 08:16:18;;;;;;;4.33;1.80;;;7.50;99.90;;;;;;4984220;28;20456;-71
2024/02/01 08:18:45;;;;;;;11.47;2.20;;;7.70;99.90;;;;;;4979955;28;20816;-71
2024/02/01 08:21:19;;;;;;;2.43;1.90;;;7.90;99.90;;;;;;4980726;28;20449;-70
2024/02/01 08:23:46;;;;;;;8.10;1.50;;;8.10;99.90;;;;;;4971843;28;20441;-70
2024/02/01 08:26:16;;;;;;;3.43;1.50;;;8.40;99.90;;;;;;4985451;28;20931;-70
2024/02/01 08:28:43;;;;;;;1.40;1.10;;;8.60;99.90;;;;;;4972263;28;20483;-70
2024/02/01 08:31:14;;;;;;;4.57;1.73;;;8.80;99.90;;;;;;4969317;28;20815;-71
2024/02/01 08:33:42;;;;;;;3.83;2.10;;;8.90;99.90;;;;;;5001512;28;20466;-70
2024/02/01 08:36:10;;;;;;;5.90;2.80;;;9.10;99.90;;;;;;5040628;28;20479;-71
2024/02/01 08:38:38;;;;;;;8.00;2.00;;;9.10;99.90;;;;;;5036979;28;20438;-71
2024/02/01 08:41:06;;;;;;;4.73;1.63;;;9.40;99.90;;;;;;5045597;28;20473;-70
2024/02/01 08:43:38;;;;;;;2.57;1.47;;;9.60;99.90;;;;;;5038920;28;20474;-70
2024/02/01 08:46:05;;;;;;;5.83;2.47;;;9.80;99.90;;;;;;5038305;28;20581;-71
2024/02/01 08:48:32;;;;;;;5.43;2.30;;;10.30;99.90;;;;;;5035576;28;20426;-70
2024/02/01 08:50:59;;;;;;;6.80;2.70;;;10.90;99.90;;;;;;5038974;28;20992;-70
2024/02/01 08:53:26;;;;;;;2.70;1.73;;;11.20;99.90;;;;;;5039856;28;20459;-71
2024/02/01 08:55:54;;;;;;;9.20;2.13;;;11.30;99.90;;;;;;5035910;28;20610;-71
2024/02/01 08:58:21;;;;;;;8.73;2.37;;;11.60;99.90;;;;;;5039789;28;20510;-71
2024/02/01 09:00:49;;;;;;;3.27;1.47;;;11.40;99.90;;;;;;5037572;28;20551;-70
2024/02/01 09:03:21;;;;;;;4.00;1.73;;;11.50;99.90;;;;;;5038533;28;20455;-71
2024/02/01 09:05:49;;;;;;;10.20;2.47;;;11.90;99.90;;;;;;5040010;28;20487;-71
2024/02/01 09:08:24;;;;;;;10.97;3.10;;;12.60;99.90;;;;;;5043770;28;20832;-70
2024/02/01 09:10:57;;;;;;;3.07;1.90;;;13.00;99.90;;;;;;5040744;28;20464;-71
2024/02/01 09:13:28;;;;;;;3.83;2.40;;;13.00;99.90;;;;;;5032478;28;20462;-72
2024/02/01 09:15:56;;;;;;;5.50;2.57;;;13.00;99.90;;;;;;5033542;28;20471;-72
2024/02/01 09:18:23;;;;;;;2.10;1.33;;;13.30;99.90;;;;;;5039147;28;20489;-71
2024/02/01 09:20:49;;;;;;;7.00;1.70;;;13.20;99.90;;;;;;5045453;28;20457;-71
2024/02/01 09:23:18;;;;;;;16.13;2.53;;;12.80;99.90;;;;;;5045249;28;20459;-71
2024/02/01 09:25:45;;;;;;;13.60;3.80;;;12.50;99.90;;;;;;5047684;28;20487;-71
2024/02/01 09:28:12;;;;;;;5.00;2.00;;;12.00;99.90;;;;;;5037447;28;20486;-71
2024/02/01 09:30:45;;;;;;;19.13;2.30;;;11.30;99.90;;;;;;5033948;28;20487;-71
2024/02/01 09:33:13;;;;;;;6.80;2.40;;;11.10;99.90;;;;;;5041804;28;20916;-71
2024/02/01 09:35:40;;;;;;;5.30;2.33;;;11.10;99.90;;;;;;5038391;28;20529;-71
2024/02/01 09:38:06;;;;;;;5.23;1.80;;;12.00;99.90;;;;;;5039607;28;20566;-71
2024/02/01 09:40:41;;;;;;;2.27;2.00;;;13.00;99.90;;;;;;5039469;28;20478;-71
2024/02/01 09:43:17;;;;;;;1.67;1.23;;;13.20;99.90;;;;;;5030463;28;20909;-71
2024/02/01 09:45:46;;;;;;;3.20;2.77;;;12.80;99.90;;;;;;5035394;28;20487;-71
2024/02/01 09:48:16;;;;;;;5.43;3.50;;;12.20;99.90;;;;;;5032350;28;20975;-71
2024/02/01 09:50:48;;;;;;;4.20;2.33;;;11.60;99.90;;;;;;5041326;28;20518;-71
2024/02/01 09:53:15;;;;;;;2.80;0.80;;;11.30;99.90;;;;;;5033355;28;20467;-70
2024/02/01 09:55:43;;;;;;;4.57;1.90;;;10.80;99.90;;;;;;5035064;28;20494;-71
2024/02/01 09:58:11;;;;;;;12.90;3.23;;;10.60;99.90;;;;;;5037580;28;20482;-71
2024/02/01 10:00:39;;;;;;;5.23;2.47;;;10.80;99.90;;;;;;5035767;28;20441;-75
2024/02/01 10:03:08;;;;;;;7.17;1.90;;;11.50;99.90;;;;;;5031541;28;20512;-71
2024/02/01 10:05:35;;;;;;;1.87;1.50;;;11.70;99.90;;;;;;5040203;28;20913;-72
2024/02/01 10:08:10;;;;;;;4.07;1.77;;;11.70;99.90;;;;;;5037958;28;20468;-71
2024/02/01 10:10:38;;;;;;;5.73;2.37;;;11.80;99.90;;;;;;5032665;28;20460;-71
2024/02/01 10:13:07;;;;;;;6.07;2.33;;;11.80;99.90;;;;;;5035842;28;20496;-71
2024/02/01 10:15:34;;;;;;;4.00;1.43;;;12.20;99.90;;;;;;5033026;28;20494;-71
2024/02/01 10:18:06;;;;;;;8.50;2.10;;;12.10;99.90;;;;;;5036742;28;20464;-71
2024/02/01 10:20:35;;;;;;;26.53;3.23;;;11.90;99.90;;;;;;5042576;28;20866;-71
2024/02/01 10:23:03;;;;;;;7.90;1.53;;;11.70;99.90;;;;;;5031838;28;20468;-70
2024/02/01 10:25:38;;;;;;;3.70;1.90;;;11.60;99.90;;;;;;5034911;28;21004;-71
2024/02/01 10:28:06;;;;;;;6.20;1.37;;;11.90;99.90;;;;;;5039967;28;20467;-70
2024/02/01 10:30:33;;;;;;;6.13;2.07;;;12.00;99.90;;;;;;5032108;28;20488;-70
2024/02/01 10:33:02;;;;;;;6.33;1.60;;;12.00;99.90;;;;;;5037318;28;20456;-70
2024/02/01 10:35:31;;;;;;;3.80;1.70;;;11.70;99.90;;;;;;5023110;28;20463;-70
2024/02/01 10:38:01;;;;;;;6.13;1.80;;;11.60;99.90;;;;;;5038069;28;20569;-70
2024/02/01 10:40:39;;;;;;;3.90;1.90;;;11.90;99.90;;;;;;5039282;28;20453;-70
2024/02/01 10:43:07;;;;;;;10.63;2.37;;;12.30;99.90;;;;;;5039952;28;20583;-71
2024/02/01 10:45:36;;;;;;;7.93;2.53;;;12.90;99.90;;;;;;5034743;28;20479;-70
2024/02/01 10:48:09;;;;;;;7.73;1.53;;;13.20;99.90;;;;;;5042772;28;20474;-71
2024/02/01 10:50:39;;;;;;;9.33;2.20;;;13.10;99.90;;;;;;5040698;28;20485;-71
2024/02/01 10:53:11;;;;;;;5.87;2.00;;;13.70;99.90;;;;;;5034865;28;20463;-69
2024/02/01 10:55:39;;;;;;;4.37;2.00;;;14.00;99.90;;;;;;5040851;28;21105;-69
2024/02/01 10:58:12;;;;;;;6.53;2.20;;;14.50;99.90;;;;;;5040637;28;20463;-70
2024/02/01 11:00:41;;;;;;;6.73;2.13;;;14.60;99.90;;;;;;5038919;28;20452;-70
2024/02/01 11:03:09;;;;;;;8.87;3.20;;;13.80;99.90;;;;;;5041749;28;20796;-71
2024/02/01 11:05:37;;;;;;;10.53;2.63;;;13.30;99.90;;;;;;5045183;28;20498;-71
2024/02/01 11:08:05;;;;;;;15.60;3.90;;;13.20;99.90;;;;;;5043015;28;20460;-70
2024/02/01 11:10:33;;;;;;;6.70;1.93;;;13.00;99.90;;;;;;5041498;28;20465;-71
2024/02/01 11:13:00;;;;;;;6.17;2.10;;;13.20;99.90;;;;;;5036310;28;20463;-71
2024/02/01 11:15:27;;;;;;;11.10;2.30;;;13.40;99.90;;;;;;5041020;28;20486;-70
2024/02/01 11:17:59;;;;;;;15.93;3.00;;;14.30;99.90;;;;;;5038479;28;20474;-69
2024/02/01 11:20:31;;;;;;;3.73;2.33;;;14.10;99.90;;;;;;5046235;28;21031;-69
2024/02/01 11:22:59;;;;;;;4.87;1.30;;;13.80;99.90;;;;;;5043588;28;20463;-71
2024/02/01 11:25:29;;;;;;;20.63;2.60;;;13.80;99.90;;;;;;5041031;28;21085;-70
2024/02/01 11:27:58;;;;;;;4.90;2.53;;;13.40;99.90;;;;;;5040348;28;20499;-71
2024/02/01 11:30:33;;;;;;;5.50;1.63;;;13.10;99.90;;;;;;5034822;28;21168;-71
2024/02/01 11:33:00;;;;;;;7.27;2.00;;;13.00;99.90;;;;;;5039042;28;20999;-70
2024/02/01 11:35:28;;;;;;;7.10;2.67;;;13.20;99.90;;;;;;5044591;28;20483;-69
2024/02/01 11:37:55;;;;;;;8.63;1.97;;;13.40;99.90;;;;;;5041115;28;20499;-71
2024/02/01 11:40:22;;;;;;;11.77;1.90;;;13.40;99.90;;;;;;5044115;28;20953;-71
2024/02/01 11:42:49;;;;;;;5.03;1.70;;;12.60;99.90;;;;;;5035073;28;20455;-70
2024/02/01 11:45:18;;;;;;;2.70;2.10;;;12.10;99.90;;;;;;5037699;28;20590;-71
2024/02/01 11:47:45;;;;;;;10.20;1.80;;;11.60;99.90;;;;;;5033647;28;21078;-69
2024/02/01 11:50:12;;;;;;;6.13;2.37;;;11.30;99.90;;;;;;5041821;28;20491;-70
2024/02/01 11:52:47;;;;;;;13.27;2.30;;;10.90;99.90;;;;;;5044953;28;20499;-70
2024/02/01 11:55:15;;;;;;;14.53;2.67;;;10.80;99.90;;;;;;5040638;28;20489;-70
2024/02/01 11:57:47;;;;;;;7.63;2.27;;;11.20;99.90;;;;;;5037202;28;20471;-70
2024/02/01 12:00:18;;;;;;;18.30;2.60;;;11.30;99.90;;;;;;5037550;28;20442;-71
2024/02/01 12:02:46;;;;;;;3.90;2.10;;;11.30;99.90;;;;;;5035840;28;20478;-70
2024/02/01 12:05:13;;;;;;;3.97;1.47;;;11.00;99.90;;;;;;5040602;28;20514;-70
2024/02/01 12:07:41;;;;;;;10.03;2.00;;;10.70;99.90;;;;;;5039072;28;20460;-70
2024/02/01 12:10:12;;;;;;;14.57;3.00;;;10.30;99.90;;;;;;5021058;28;20582;-70
2024/02/01 12:12:40;;;;;;;12.97;2.30;;;10.20;99.90;;;;;;5041685;28;20441;-71
2024/02/01 12:15:09;;;;;;;3.37;1.50;;;10.30;99.90;;;;;;5040219;28;20453;-70
2024/02/01 12:17:42;;;;;;;6.20;5.73;;;10.60;99.90;;;;;;5042911;28;20456;-70
2024/02/01 12:20:10;;;;;;;7.77;3.30;;;10.60;99.90;;;;;;5043719;28;20937;-70
2024/02/01 12:22:37;;;;;;;4.90;2.30;;;10.60;99.90;;;;;;5031673;28;20478;-70
2024/02/01 12:25:04;;;;;;;8.43;2.20;;;10.20;99.90;;;;;;5035904;28;20497;-69
2024/02/01 12:27:31;;;;;;;5.63;3.17;;;9.80;99.90;;;;;;5040083;28;20463;-69
2024/02/01 12:29:58;;;;;;;7.13;1.93;;;9.70;99.90;;;;;;5034212;28;20483;-69
2024/02/01 12:32:26;;;;;;;4.83;1.33;;;9.70;99.90;;;;;;5035512;28;20526;-71
2024/02/01 12:34:54;;;;;;;4.87;1.90;;;9.90;99.90;;;;;;5044667;28;20453;-70
2024/02/01 12:37:21;;;;;;;6.50;1.80;;;10.10;99.90;;;;;;5035301;28;20538;-70
2024/02/01 12:39:48;;;;;;;3.10;1.93;;;10.10;99.90;;;;;;5043060;28;20438;-70
2024/02/01 12:42:15;;;;;;;8.63;1.90;;;10.00;99.90;;;;;;5039165;28;20501;-70
2024/02/01 12:44:42;;;;;;;18.83;2.57;;;10.70;99.90;;;;;;5040802;28;20466;-70
2024/02/01 12:47:11;;;;;;;9.23;2.40;;;11.60;99.90;;;;;;5037466;28;20456;-70
2024/02/01 12:49:38;;;;;;;10.20;2.80;;;13.10;99.90;;;;;;5038354;28;21327;-70
2024/02/01 12:52:10;;;;;;;14.17;2.33;;;14.40;99.90;;;;;;5036152;28;20489;-71
2024/02/01 12:54:38;;;;;;;5.77;2.20;;;14.40;99.90;;;;;;5036577;28;20475;-71
2024/02/01 12:57:07;;;;;;;3.73;2.10;;;14.80;99.90;;;;;;5040780;28;21037;-70
2024/02/01 12:59:36;;;;;;;4.00;2.20;;;15.60;99.90;;;;;;5037811;28;20514;-69
2024/02/01 13:02:04;;;;;;;3.30;2.07;;;15.50;99.90;;;;;;5030760;28;20477;-71
2024/02/01 13:04:31;;;;;;;13.27;2.70;;;15.90;99.90;;;;;;5037363;28;20480;-71
2024/02/01 13:07:01;;;;;;;4.70;1.90;;;16.40;99.90;;;;;;5041730;28;20494;-69
2024/02/01 13:09:29;;;;;;;4.37;1.67;;;16.10;99.90;;;;;;5031845;28;20468;-70
2024/02/01 13:11:58;;;;;;;3.80;2.10;;;16.20;99.90;;;;;;5043066;28;20574;-70
2024/02/01 13:14:28;;;;;;;5.43;1.67;;;15.50;99.90;;;;;;5030931;28;20464;-70
2024/02/01 13:16:56;;;;;;;2.80;1.80;;;14.70;99.90;;;;;;5037051;28;21017;-70
2024/02/01 13:19:23;;;;;;;4.00;2.57;;;14.90;99.90;;;;;;5044956;28;20464;-70
2024/02/01 13:21:50;;;;;;;4.90;1.93;;;15.20;99.90;;;;;;5041787;28;20487;-70
2024/02/01 13:24:17;;;;;;;8.70;1.93;;;14.90;99.90;;;;;;5037051;28;20474;-70
2024/02/01 13:26:47;;;;;;;3.80;1.47;;;13.80;99.90;;;;;;5044558;28;20494;-69
2024/02/01 13:29:15;;;;;;;10.10;2.07;;;14.10;99.90;;;;;;5035916;28;20464;-70
2024/02/01 13:31:41;;;;;;;8.10;2.20;;;14.70;99.90;;;;;;5047252;28;20517;-70
2024/02/01 13:34:09;;;;;;;4.07;2.90;;;15.10;99.90;;;;;;5040913;28;20466;-71
2024/02/01 13:36:35;;;;;;;3.20;1.83;;;14.90;99.90;;;;;;5043845;28;20475;-70
2024/02/01 13:39:05;;;;;;;9.10;2.63;;;14.30;99.90;;;;;;5040708;28;20459;-70
2024/02/01 13:41:33;;;;;;;13.90;3.53;;;13.90;99.90;;;;;;5034652;28;20479;-70